createdAt,value
2023-05-22T00:00:56.701Z,17.23
2023-05-22T00:01:56.930Z,17.23
2023-05-22T00:02:56.793Z,17.23
2023-05-22T00:03:56.635Z,17.23
2023-05-22T00:04:56.684Z,17.26
2023-05-22T00:05:56.615Z,17.28
2023-05-22T00:06:56.622Z,17.28
2023-05-22T00:07:56.579Z,17.22
2023-05-22T00:08:56.591Z,17.12
2023-05-22T00:09:56.581Z,16.98
2023-05-22T00:10:56.603Z,16.88
2023-05-22T00:11:56.532Z,16.83
2023-05-22T00:12:56.533Z,16.81
2023-05-22T00:13:56.535Z,16.79
2023-05-22T00:14:56.526Z,16.79
2023-05-22T00:15:56.488Z,16.81
2023-05-22T00:16:56.577Z,16.81
2023-05-22T00:17:56.458Z,16.79
2023-05-22T00:18:56.483Z,16.78
2023-05-22T00:19:56.425Z,16.76
2023-05-22T00:20:56.430Z,16.75
2023-05-22T00:21:56.453Z,16.76
2023-05-22T00:22:56.412Z,16.78
2023-05-22T00:23:56.370Z,16.79
2023-05-22T00:24:56.385Z,16.81
2023-05-22T00:25:56.352Z,16.79
2023-05-22T00:26:56.629Z,16.79
2023-05-22T00:27:56.329Z,16.76
2023-05-22T00:28:56.357Z,16.73
2023-05-22T00:29:56.289Z,16.68
2023-05-22T00:30:56.299Z,16.66
2023-05-22T00:31:56.295Z,16.64
2023-05-22T00:32:56.305Z,16.64
2023-05-22T00:33:56.260Z,16.61
2023-05-22T00:34:56.267Z,16.63
2023-05-22T00:35:56.233Z,16.64
2023-05-22T00:36:56.224Z,16.67
2023-05-22T00:37:56.196Z,16.70
2023-05-22T00:38:56.210Z,16.73
2023-05-22T00:39:56.182Z,16.79
2023-05-22T00:40:56.197Z,16.79
2023-05-22T00:41:56.142Z,16.79
2023-05-22T00:42:56.146Z,16.83
2023-05-22T00:43:56.124Z,16.85
2023-05-22T00:44:56.140Z,16.83
2023-05-22T00:45:56.111Z,16.83
2023-05-22T00:46:56.159Z,16.81
2023-05-22T00:47:56.113Z,16.79
2023-05-22T00:48:56.092Z,16.79
2023-05-22T00:49:56.038Z,16.78
2023-05-22T00:50:56.075Z,16.76
2023-05-22T00:51:56.019Z,16.76
2023-05-22T00:52:56.019Z,16.78
2023-05-22T00:53:55.999Z,16.78
2023-05-22T00:54:55.999Z,16.79
2023-05-22T00:55:55.989Z,16.78
2023-05-22T00:56:55.966Z,16.76
2023-05-22T00:57:55.956Z,16.71
2023-05-22T00:58:55.937Z,16.73
2023-05-22T00:59:55.927Z,16.71
2023-05-22T01:00:55.919Z,16.70
2023-05-22T01:01:55.966Z,16.68
2023-05-22T01:02:55.934Z,16.68
2023-05-22T01:03:56.008Z,16.68
2023-05-22T01:04:55.861Z,16.70
2023-05-22T01:05:55.822Z,16.70
2023-05-22T01:06:56.158Z,16.67
2023-05-22T01:07:55.817Z,16.63
2023-05-22T01:08:55.827Z,16.60
2023-05-22T01:09:55.790Z,16.57
2023-05-22T01:10:55.798Z,16.56
2023-05-22T01:11:55.775Z,16.56
2023-05-22T01:12:55.757Z,16.53
2023-05-22T01:13:55.736Z,16.56
2023-05-22T01:14:55.744Z,16.56
2023-05-22T01:15:55.765Z,16.53
2023-05-22T01:16:55.704Z,16.53
2023-05-22T01:17:55.819Z,16.49
2023-05-22T01:18:55.737Z,16.46
2023-05-22T01:19:55.665Z,16.42
2023-05-22T01:20:55.691Z,16.35
2023-05-22T01:21:55.630Z,16.28
2023-05-22T01:22:55.630Z,16.25
2023-05-22T01:23:55.631Z,16.21
2023-05-22T01:24:55.609Z,16.17
2023-05-22T01:25:55.560Z,16.15
2023-05-22T01:26:55.581Z,16.15
2023-05-22T01:27:55.537Z,16.12
2023-05-22T01:28:55.578Z,16.12
2023-05-22T01:29:55.529Z,16.11
2023-05-22T01:30:55.520Z,16.14
2023-05-22T01:31:55.487Z,16.15
2023-05-22T01:32:55.602Z,16.20
2023-05-22T01:33:55.631Z,16.21
2023-05-22T01:34:55.471Z,16.24
2023-05-22T01:35:55.426Z,16.27
2023-05-22T01:36:55.458Z,16.27
2023-05-22T01:37:55.404Z,16.28
2023-05-22T01:38:55.462Z,16.30
2023-05-22T01:39:55.383Z,16.31
2023-05-22T01:40:55.390Z,16.31
2023-05-22T01:41:55.353Z,16.34
2023-05-22T01:42:55.409Z,16.33
2023-05-22T01:43:55.350Z,16.33
2023-05-22T01:44:55.349Z,16.31
2023-05-22T01:45:55.395Z,16.31
2023-05-22T01:46:55.348Z,16.33
2023-05-22T01:47:55.336Z,16.33
2023-05-22T01:48:55.315Z,16.34
2023-05-22T01:49:55.254Z,16.31
2023-05-22T01:50:55.309Z,16.31
2023-05-22T01:51:55.257Z,16.31
2023-05-22T01:52:55.238Z,16.33
2023-05-22T01:53:55.219Z,16.33
2023-05-22T01:54:55.222Z,16.31
2023-05-22T01:55:55.179Z,16.34
2023-05-22T01:56:55.211Z,16.34
2023-05-22T01:57:55.139Z,16.34
2023-05-22T01:58:55.169Z,16.30
2023-05-22T01:59:55.149Z,16.23
2023-05-22T02:00:55.637Z,16.17
2023-05-22T02:01:55.093Z,16.11
2023-05-22T02:02:55.210Z,16.09
2023-05-22T02:03:55.073Z,16.08
2023-05-22T02:04:55.097Z,16.07
2023-05-22T02:05:55.056Z,16.07
2023-05-22T02:06:55.060Z,16.04
2023-05-22T02:07:55.048Z,16.04
2023-05-22T02:08:55.037Z,15.96
2023-05-22T02:09:55.017Z,15.96
2023-05-22T02:10:55.000Z,15.90
2023-05-22T02:11:54.986Z,15.86
2023-05-22T02:12:54.993Z,15.84
2023-05-22T02:13:54.940Z,15.80
2023-05-22T02:14:54.956Z,15.78
2023-05-22T02:15:54.972Z,15.76
2023-05-22T02:16:54.943Z,15.75
2023-05-22T02:17:54.915Z,15.74
2023-05-22T02:18:54.957Z,15.72
2023-05-22T02:19:54.940Z,15.71
2023-05-22T02:20:54.888Z,15.71
2023-05-22T02:21:54.853Z,15.71
2023-05-22T02:22:54.862Z,15.69
2023-05-22T02:23:54.822Z,15.71
2023-05-22T02:24:54.831Z,15.69
2023-05-22T02:25:54.806Z,15.72
2023-05-22T02:26:54.813Z,15.72
2023-05-22T02:27:54.818Z,15.75
2023-05-22T02:28:54.776Z,15.80
2023-05-22T02:29:54.763Z,15.84
2023-05-22T02:30:54.816Z,15.90
2023-05-22T02:31:54.728Z,15.96
2023-05-22T02:32:54.799Z,16.01
2023-05-22T02:33:54.698Z,16.05
2023-05-22T02:34:54.911Z,16.09
2023-05-22T02:35:54.668Z,16.11
2023-05-22T02:36:54.745Z,16.14
2023-05-22T02:37:54.649Z,16.15
2023-05-22T02:38:54.649Z,16.21
2023-05-22T02:39:54.594Z,16.24
2023-05-22T02:40:54.617Z,16.25
2023-05-22T02:41:54.597Z,16.25
2023-05-22T02:42:54.628Z,16.25
2023-05-22T02:43:54.557Z,16.24
2023-05-22T02:44:54.584Z,16.24
2023-05-22T02:45:54.554Z,16.20
2023-05-22T02:46:54.623Z,16.15
2023-05-22T02:47:54.522Z,16.17
2023-05-22T02:48:54.527Z,16.15
2023-05-22T02:49:54.494Z,16.15
2023-05-22T02:50:54.486Z,16.17
2023-05-22T02:51:54.444Z,16.20
2023-05-22T02:52:54.453Z,16.20
2023-05-22T02:53:54.453Z,16.20
2023-05-22T02:54:54.429Z,16.20
2023-05-22T02:55:54.391Z,16.20
2023-05-22T02:56:54.421Z,16.21
2023-05-22T02:57:54.380Z,16.23
2023-05-22T02:58:54.372Z,16.24
2023-05-22T02:59:54.322Z,16.27
2023-05-22T03:00:54.347Z,16.28
2023-05-22T03:01:54.390Z,16.28
2023-05-22T03:02:54.396Z,16.31
2023-05-22T03:03:54.354Z,16.31
2023-05-22T03:04:54.297Z,16.33
2023-05-22T03:05:54.286Z,16.34
2023-05-22T03:06:54.295Z,16.35
2023-05-22T03:07:54.227Z,16.35
2023-05-22T03:08:54.269Z,16.38
2023-05-22T03:09:54.222Z,16.39
2023-05-22T03:10:54.245Z,16.35
2023-05-22T03:11:54.198Z,16.31
2023-05-22T03:12:54.201Z,16.28
2023-05-22T03:13:54.183Z,16.25
2023-05-22T03:14:54.205Z,16.23
2023-05-22T03:15:54.156Z,16.21
2023-05-22T03:16:54.225Z,16.20
2023-05-22T03:17:54.160Z,16.20
2023-05-22T03:18:54.139Z,16.20
2023-05-22T03:19:54.068Z,16.20
2023-05-22T03:20:54.117Z,16.17
2023-05-22T03:21:54.075Z,16.20
2023-05-22T03:22:54.062Z,16.20
2023-05-22T03:23:54.055Z,16.24
2023-05-22T03:24:54.031Z,16.25
2023-05-22T03:25:54.025Z,16.28
2023-05-22T03:26:54.098Z,16.28
2023-05-22T03:27:54.003Z,16.28
2023-05-22T03:28:54.014Z,16.30
2023-05-22T03:29:53.955Z,16.31
2023-05-22T03:30:53.965Z,16.33
2023-05-22T03:31:53.981Z,16.33
2023-05-22T03:32:53.988Z,16.33
2023-05-22T03:33:54.011Z,16.34
2023-05-22T03:34:53.908Z,16.33
2023-05-22T03:35:53.903Z,16.34
2023-05-22T03:36:53.901Z,16.35
2023-05-22T03:37:53.890Z,16.38
2023-05-22T03:38:53.819Z,16.38
2023-05-22T03:39:53.884Z,16.39
2023-05-22T03:40:53.808Z,16.41
2023-05-22T03:41:53.842Z,16.41
2023-05-22T03:42:53.789Z,16.42
2023-05-22T03:43:53.827Z,16.39
2023-05-22T03:44:53.761Z,16.41
2023-05-22T03:45:53.854Z,16.39
2023-05-22T03:46:53.733Z,16.39
2023-05-22T03:47:53.879Z,16.35
2023-05-22T03:48:53.720Z,16.31
2023-05-22T03:49:53.723Z,16.28
2023-05-22T03:50:53.687Z,16.23
2023-05-22T03:51:53.706Z,16.15
2023-05-22T03:52:53.662Z,16.11
2023-05-22T03:53:53.692Z,16.05
2023-05-22T03:54:53.742Z,16.07
2023-05-22T03:55:53.654Z,16.07
2023-05-22T03:56:53.592Z,16.09
2023-05-22T03:57:53.602Z,16.11
2023-05-22T03:58:53.607Z,16.14
2023-05-22T03:59:53.575Z,16.17
2023-05-22T04:00:53.532Z,16.20
2023-05-22T04:01:53.552Z,16.20
2023-05-22T04:02:53.575Z,16.20
2023-05-22T04:03:53.553Z,16.21
2023-05-22T04:04:53.507Z,16.24
2023-05-22T04:05:53.495Z,16.27
2023-05-22T04:06:53.466Z,16.30
2023-05-22T04:07:53.476Z,16.31
2023-05-22T04:08:53.433Z,16.33
2023-05-22T04:09:53.465Z,16.34
2023-05-22T04:10:53.411Z,16.34
2023-05-22T04:11:53.436Z,16.38
2023-05-22T04:12:53.404Z,16.39
2023-05-22T04:13:53.405Z,16.39
2023-05-22T04:14:53.381Z,16.38
2023-05-22T04:15:53.412Z,16.39
2023-05-22T04:16:53.328Z,16.35
2023-05-22T04:17:53.631Z,16.38
2023-05-22T04:18:53.338Z,16.38
2023-05-22T04:19:53.354Z,16.41
2023-05-22T04:20:53.286Z,16.39
2023-05-22T04:21:53.329Z,16.38
2023-05-22T04:22:53.249Z,16.35
2023-05-22T04:23:53.270Z,16.34
2023-05-22T04:24:53.224Z,16.34
2023-05-22T04:25:53.289Z,16.34
2023-05-22T04:26:53.231Z,16.35
2023-05-22T04:27:53.232Z,16.38
2023-05-22T04:28:53.185Z,16.38
2023-05-22T04:29:53.352Z,16.39
2023-05-22T04:30:53.223Z,16.39
2023-05-22T04:31:53.165Z,16.38
2023-05-22T04:32:53.132Z,16.39
2023-05-22T04:33:53.141Z,16.38
2023-05-22T04:34:53.131Z,16.38
2023-05-22T04:35:53.122Z,16.35
2023-05-22T04:36:53.124Z,16.35
2023-05-22T04:37:53.098Z,16.35
2023-05-22T04:38:53.082Z,16.38
2023-05-22T04:39:53.060Z,16.42
2023-05-22T04:40:53.071Z,16.43
2023-05-22T04:41:53.065Z,16.45
2023-05-22T04:42:53.002Z,16.46
2023-05-22T04:43:53.021Z,16.49
2023-05-22T04:44:52.963Z,16.49
2023-05-22T04:45:52.993Z,16.50
2023-05-22T04:46:52.983Z,16.53
2023-05-22T04:47:52.978Z,16.53
2023-05-22T04:48:52.926Z,16.56
2023-05-22T04:49:52.938Z,16.56
2023-05-22T04:50:52.922Z,16.53
2023-05-22T04:51:52.905Z,16.52
2023-05-22T04:52:53.042Z,16.53
2023-05-22T04:53:52.878Z,16.53
2023-05-22T04:54:52.848Z,16.57
2023-05-22T04:55:52.851Z,16.57
2023-05-22T04:56:52.813Z,16.58
2023-05-22T04:57:52.910Z,16.60
2023-05-22T04:58:52.782Z,16.58
2023-05-22T04:59:52.795Z,16.60
2023-05-22T05:00:52.795Z,16.60
2023-05-22T05:01:52.773Z,16.60
2023-05-22T05:02:52.804Z,16.63
2023-05-22T05:03:52.825Z,16.64
2023-05-22T05:04:52.700Z,16.67
2023-05-22T05:05:52.710Z,16.70
2023-05-22T05:06:52.677Z,16.70
2023-05-22T05:07:52.721Z,16.75
2023-05-22T05:08:52.666Z,16.78
2023-05-22T05:09:52.699Z,16.81
2023-05-22T05:10:52.645Z,16.81
2023-05-22T05:11:52.648Z,16.81
2023-05-22T05:12:52.603Z,16.83
2023-05-22T05:13:52.678Z,16.85
2023-05-22T05:14:52.634Z,16.86
2023-05-22T05:15:52.580Z,16.89
2023-05-22T05:16:52.627Z,16.93
2023-05-22T05:17:52.591Z,16.96
2023-05-22T05:18:52.554Z,16.98
2023-05-22T05:19:52.553Z,17.00
2023-05-22T05:20:52.565Z,17.00
2023-05-22T05:21:52.552Z,17.00
2023-05-22T05:22:52.482Z,17.01
2023-05-22T05:23:52.490Z,17.04
2023-05-22T05:24:52.466Z,17.06
2023-05-22T05:25:52.464Z,17.07
2023-05-22T05:26:52.431Z,17.07
2023-05-22T05:27:52.426Z,17.08
2023-05-22T05:28:52.405Z,17.11
2023-05-22T05:29:52.399Z,17.12
2023-05-22T05:30:52.397Z,17.14
2023-05-22T05:31:52.395Z,17.18
2023-05-22T05:32:52.393Z,17.21
2023-05-22T05:33:52.367Z,17.21
2023-05-22T05:34:52.337Z,17.23
2023-05-22T05:35:52.327Z,17.26
2023-05-22T05:36:52.305Z,17.28
2023-05-22T05:37:52.309Z,17.28
2023-05-22T05:38:52.272Z,17.31
2023-05-22T05:39:52.276Z,17.31
2023-05-22T05:40:52.296Z,17.34
2023-05-22T05:41:52.483Z,17.34
2023-05-22T05:42:52.395Z,17.36
2023-05-22T05:43:52.225Z,17.38
2023-05-22T05:44:52.219Z,17.41
2023-05-22T05:45:52.231Z,17.43
2023-05-22T05:46:52.155Z,17.44
2023-05-22T05:47:52.257Z,17.46
2023-05-22T05:48:52.133Z,17.46
2023-05-22T05:49:52.175Z,17.46
2023-05-22T05:50:52.123Z,17.48
2023-05-22T05:51:52.118Z,17.51
2023-05-22T05:52:52.115Z,17.49
2023-05-22T05:53:52.090Z,17.51
2023-05-22T05:54:52.057Z,17.52
2023-05-22T05:55:52.059Z,17.54
2023-05-22T05:56:52.053Z,17.56
2023-05-22T05:57:52.082Z,17.56
2023-05-22T05:58:52.002Z,17.59
2023-05-22T05:59:52.037Z,17.62
2023-05-22T06:00:52.009Z,17.66
2023-05-22T06:01:52.005Z,17.68
2023-05-22T06:02:52.027Z,17.71
2023-05-22T06:03:52.077Z,17.74
2023-05-22T06:04:51.942Z,17.79
2023-05-22T06:05:52.008Z,17.78
2023-05-22T06:06:51.967Z,17.81
2023-05-22T06:07:51.901Z,17.82
2023-05-22T06:08:51.884Z,17.86
2023-05-22T06:09:51.895Z,17.92
2023-05-22T06:10:51.848Z,17.95
2023-05-22T06:11:51.876Z,17.99
2023-05-22T06:12:51.808Z,18.03
2023-05-22T06:13:51.844Z,18.07
2023-05-22T06:14:51.852Z,18.08
2023-05-22T06:15:51.836Z,18.12
2023-05-22T06:16:51.813Z,18.15
2023-05-22T06:17:51.865Z,18.21
2023-05-22T06:18:51.814Z,18.26
2023-05-22T06:19:52.128Z,18.32
2023-05-22T06:20:51.758Z,18.36
2023-05-22T06:21:52.188Z,18.36
2023-05-22T06:22:51.727Z,18.39
2023-05-22T06:23:51.673Z,18.42
2023-05-22T06:24:51.725Z,18.44
2023-05-22T06:25:51.663Z,18.47
2023-05-22T06:26:51.710Z,18.50
2023-05-22T06:27:51.621Z,18.50
2023-05-22T06:28:51.637Z,18.52
2023-05-22T06:29:51.606Z,18.54
2023-05-22T06:30:51.656Z,18.55
2023-05-22T06:31:51.599Z,18.60
2023-05-22T06:32:51.749Z,18.63
2023-05-22T06:33:51.680Z,18.65
2023-05-22T06:34:51.561Z,18.67
2023-05-22T06:35:51.534Z,18.70
2023-05-22T06:36:51.557Z,18.73
2023-05-22T06:37:51.497Z,18.73
2023-05-22T06:38:51.491Z,18.76
2023-05-22T06:39:51.475Z,18.80
2023-05-22T06:40:51.469Z,18.81
2023-05-22T06:41:51.432Z,18.82
2023-05-22T06:42:51.495Z,18.84
2023-05-22T06:43:51.427Z,18.84
2023-05-22T06:44:51.430Z,18.88
2023-05-22T06:45:51.441Z,18.91
2023-05-22T06:46:51.413Z,18.94
2023-05-22T06:47:51.402Z,18.99
2023-05-22T06:48:51.391Z,19.04
2023-05-22T06:49:51.340Z,19.07
2023-05-22T06:50:51.350Z,19.11
2023-05-22T06:51:51.326Z,19.14
2023-05-22T06:52:51.326Z,19.18
2023-05-22T06:53:51.302Z,19.22
2023-05-22T06:54:51.326Z,19.23
2023-05-22T06:55:51.278Z,19.26
2023-05-22T06:56:51.250Z,19.29
2023-05-22T06:57:51.245Z,19.32
2023-05-22T06:58:51.253Z,19.37
2023-05-22T06:59:51.226Z,19.43
2023-05-22T07:00:51.284Z,19.46
2023-05-22T07:01:51.191Z,19.50
2023-05-22T07:02:51.229Z,19.55
2023-05-22T07:03:51.165Z,19.56
2023-05-22T07:04:51.154Z,19.61
2023-05-22T07:05:51.195Z,19.65
2023-05-22T07:06:51.117Z,19.68
2023-05-22T07:07:51.111Z,19.74
2023-05-22T07:08:51.121Z,19.74
2023-05-22T07:09:51.076Z,19.77
2023-05-22T07:10:51.065Z,19.80
2023-05-22T07:11:51.051Z,19.80
2023-05-22T07:12:51.034Z,19.81
2023-05-22T07:13:50.989Z,19.84
2023-05-22T07:14:51.037Z,19.86
2023-05-22T07:15:51.027Z,19.88
2023-05-22T07:16:51.184Z,19.92
2023-05-22T07:17:51.001Z,19.95
2023-05-22T07:18:50.997Z,19.99
2023-05-22T07:19:50.920Z,20.02
2023-05-22T07:20:50.934Z,20.06
2023-05-22T07:21:50.938Z,20.10
2023-05-22T07:22:50.905Z,20.16
2023-05-22T07:23:50.880Z,20.18
2023-05-22T07:24:50.881Z,20.21
2023-05-22T07:25:50.868Z,20.24
2023-05-22T07:26:50.870Z,20.33
2023-05-22T07:27:50.830Z,20.39
2023-05-22T07:28:50.844Z,20.41
2023-05-22T07:29:50.796Z,20.43
2023-05-22T07:30:50.813Z,20.48
2023-05-22T07:31:50.807Z,20.52
2023-05-22T07:32:50.894Z,20.55
2023-05-22T07:33:50.786Z,20.57
2023-05-22T07:34:50.781Z,20.59
2023-05-22T07:35:50.722Z,20.64
2023-05-22T07:36:50.745Z,20.70
2023-05-22T07:37:50.697Z,20.73
2023-05-22T07:38:50.698Z,20.79
2023-05-22T07:39:50.694Z,20.84
2023-05-22T07:40:50.675Z,20.91
2023-05-22T07:41:50.644Z,20.97
2023-05-22T07:42:50.704Z,21.06
2023-05-22T07:43:50.657Z,21.16
2023-05-22T07:44:50.632Z,21.31
2023-05-22T07:45:50.589Z,21.50
2023-05-22T07:46:50.595Z,21.65
2023-05-22T07:47:50.655Z,21.77
2023-05-22T07:48:50.563Z,21.82
2023-05-22T07:49:50.530Z,21.91
2023-05-22T07:50:50.554Z,21.90
2023-05-22T07:51:50.528Z,21.88
2023-05-22T07:52:50.541Z,21.88
2023-05-22T07:53:50.458Z,21.86
2023-05-22T07:54:50.508Z,21.80
2023-05-22T07:55:50.471Z,21.71
2023-05-22T07:56:50.463Z,21.62
2023-05-22T07:57:50.450Z,21.65
2023-05-22T07:58:50.443Z,21.65
2023-05-22T07:59:50.389Z,21.64
2023-05-22T08:00:50.406Z,21.69
2023-05-22T08:01:50.380Z,21.92
2023-05-22T08:02:50.483Z,22.14
2023-05-22T08:03:50.515Z,22.24
2023-05-22T08:04:50.442Z,22.27
2023-05-22T08:05:50.400Z,22.37
2023-05-22T08:06:50.857Z,22.46
2023-05-22T08:07:50.308Z,22.61
2023-05-22T08:08:50.351Z,22.67
2023-05-22T08:09:50.272Z,22.57
2023-05-22T08:11:03.243Z,22.47
2023-05-22T08:11:50.273Z,22.54
2023-05-22T08:12:50.259Z,22.46
2023-05-22T08:13:50.260Z,22.33
2023-05-22T08:14:50.258Z,22.20
2023-05-22T08:15:50.227Z,22.20
2023-05-22T08:16:50.281Z,22.21
2023-05-22T08:17:50.189Z,22.22
2023-05-22T08:18:50.238Z,22.20
2023-05-22T08:19:50.325Z,22.18
2023-05-22T08:20:50.183Z,22.15
2023-05-22T08:21:50.143Z,22.12
2023-05-22T08:22:50.362Z,22.09
2023-05-22T08:23:50.084Z,22.02
2023-05-22T08:24:50.131Z,21.96
2023-05-22T08:25:50.074Z,21.92
2023-05-22T08:26:50.073Z,21.90
2023-05-22T08:27:50.021Z,21.84
2023-05-22T08:28:50.067Z,21.79
2023-05-22T08:29:50.036Z,21.74
2023-05-22T08:30:49.996Z,21.72
2023-05-22T08:31:50.084Z,21.71
2023-05-22T08:32:50.048Z,21.68
2023-05-22T08:33:49.987Z,21.67
2023-05-22T08:34:49.996Z,21.64
2023-05-22T08:35:49.938Z,21.59
2023-05-22T08:36:49.953Z,21.53
2023-05-22T08:37:49.903Z,21.53
2023-05-22T08:38:49.923Z,21.53
2023-05-22T08:39:49.897Z,21.49
2023-05-22T08:40:49.916Z,21.47
2023-05-22T08:41:49.859Z,21.44
2023-05-22T08:42:49.864Z,21.42
2023-05-22T08:43:49.875Z,21.43
2023-05-22T08:44:49.871Z,21.42
2023-05-22T08:45:49.854Z,21.43
2023-05-22T08:46:49.875Z,21.42
2023-05-22T08:47:49.797Z,21.46
2023-05-22T08:48:49.783Z,21.49
2023-05-22T08:49:49.773Z,21.52
2023-05-22T08:50:49.804Z,21.54
2023-05-22T08:51:49.716Z,21.58
2023-05-22T08:52:49.749Z,21.61
2023-05-22T08:53:49.743Z,21.65
2023-05-22T08:54:49.712Z,21.72
2023-05-22T08:55:49.723Z,21.79
2023-05-22T08:56:56.748Z,21.84
2023-05-22T08:57:49.642Z,21.88
2023-05-22T08:58:49.659Z,21.94
2023-05-22T08:59:49.642Z,22.00
2023-05-22T09:00:49.669Z,22.07
2023-05-22T09:01:49.634Z,22.18
2023-05-22T09:02:49.683Z,22.24
2023-05-22T09:03:49.634Z,22.46
2023-05-22T09:04:49.593Z,22.75
2023-05-22T09:05:49.564Z,22.95
2023-05-22T09:06:49.567Z,23.22
2023-05-22T09:07:49.550Z,23.38
2023-05-22T09:08:51.393Z,23.39
2023-05-22T09:09:49.508Z,23.27
2023-05-22T09:10:49.580Z,23.20
2023-05-22T09:11:49.500Z,23.15
2023-05-22T09:12:49.504Z,23.09
2023-05-22T09:13:49.467Z,23.05
2023-05-22T09:14:49.454Z,22.98
2023-05-22T09:15:49.483Z,22.91
2023-05-22T09:16:49.543Z,22.77
2023-05-22T09:17:49.418Z,22.70
2023-05-22T09:18:49.475Z,22.62
2023-05-22T09:19:49.380Z,22.61
2023-05-22T09:20:49.376Z,22.58
2023-05-22T09:21:49.338Z,22.54
2023-05-22T09:22:49.372Z,22.55
2023-05-22T09:23:49.341Z,22.57
2023-05-22T09:24:49.348Z,22.61
2023-05-22T09:25:49.303Z,22.64
2023-05-22T09:26:49.374Z,22.90
2023-05-22T09:27:49.300Z,23.04
2023-05-22T09:28:49.321Z,23.15
2023-05-22T09:29:49.252Z,23.32
2023-05-22T09:30:49.286Z,23.57
2023-05-22T09:31:49.393Z,23.65
2023-05-22T09:32:49.303Z,23.65
2023-05-22T09:33:49.215Z,23.63
2023-05-22T09:34:49.245Z,23.61
2023-05-22T09:35:49.165Z,23.57
2023-05-22T09:36:49.165Z,23.60
2023-05-22T09:37:49.179Z,23.50
2023-05-22T09:38:49.132Z,23.46
2023-05-22T09:39:49.135Z,23.43
2023-05-22T09:40:49.119Z,23.42
2023-05-22T09:41:49.094Z,23.53
2023-05-22T09:42:49.104Z,23.54
2023-05-22T09:43:49.083Z,23.55
2023-05-22T09:44:49.101Z,23.69
2023-05-22T09:45:49.029Z,23.87
2023-05-22T09:46:49.084Z,24.03
2023-05-22T09:47:49.077Z,24.20
2023-05-22T09:48:49.015Z,24.31
2023-05-22T09:49:48.979Z,24.45
2023-05-22T09:50:48.976Z,24.49
2023-05-22T09:51:49.063Z,24.53
2023-05-22T09:52:48.962Z,24.68
2023-05-22T09:53:48.965Z,24.85
2023-05-22T09:54:48.943Z,25.08
2023-05-22T09:55:48.915Z,25.27
2023-05-22T09:56:48.939Z,25.32
2023-05-22T09:57:48.857Z,25.47
2023-05-22T09:58:48.933Z,25.57
2023-05-22T09:59:48.846Z,25.69
2023-05-22T10:00:48.873Z,25.82
2023-05-22T10:01:48.904Z,25.83
2023-05-22T10:02:48.912Z,25.94
2023-05-22T10:03:49.666Z,26.01
2023-05-22T10:04:48.923Z,25.92
2023-05-22T10:05:48.780Z,25.95
2023-05-22T10:06:48.796Z,26.01
2023-05-22T10:07:48.742Z,25.92
2023-05-22T10:08:48.780Z,25.94
2023-05-22T10:09:48.730Z,25.88
2023-05-22T10:10:48.728Z,25.95
2023-05-22T10:11:48.803Z,26.07
2023-05-22T10:12:48.685Z,26.09
2023-05-22T10:13:48.704Z,26.07
2023-05-22T10:14:48.704Z,26.12
2023-05-22T10:15:48.720Z,26.10
2023-05-22T10:16:48.655Z,26.07
2023-05-22T10:17:48.702Z,26.09
2023-05-22T10:18:48.729Z,26.09
2023-05-22T10:19:48.750Z,26.01
2023-05-22T10:20:48.607Z,26.09
2023-05-22T10:21:48.598Z,26.12
2023-05-22T10:22:48.572Z,26.15
2023-05-22T10:23:48.594Z,26.07
2023-05-22T10:24:48.545Z,26.02
2023-05-22T10:25:48.526Z,26.17
2023-05-22T10:26:48.515Z,26.28
2023-05-22T10:27:48.521Z,26.25
2023-05-22T10:28:48.513Z,26.12
2023-05-22T10:29:48.959Z,25.97
2023-05-22T10:30:48.448Z,25.94
2023-05-22T10:31:48.444Z,25.99
2023-05-22T10:32:48.453Z,26.15
2023-05-22T10:33:48.469Z,26.30
2023-05-22T10:34:48.437Z,26.39
2023-05-22T10:35:48.381Z,26.45
2023-05-22T10:36:48.423Z,26.50
2023-05-22T10:37:48.505Z,26.57
2023-05-22T10:38:48.422Z,26.54
2023-05-22T10:39:48.334Z,26.48
2023-05-22T10:40:48.572Z,26.45
2023-05-22T10:41:48.311Z,26.43
2023-05-22T10:42:48.337Z,26.39
2023-05-22T10:43:48.303Z,26.43
2023-05-22T10:44:48.312Z,26.36
2023-05-22T10:45:48.352Z,26.25
2023-05-22T10:46:48.284Z,26.07
2023-05-22T10:47:48.271Z,25.99
2023-05-22T10:48:48.238Z,25.92
2023-05-22T10:49:48.211Z,25.90
2023-05-22T10:50:48.218Z,25.95
2023-05-22T10:51:48.166Z,26.10
2023-05-22T10:52:48.189Z,26.26
2023-05-22T10:53:48.151Z,26.43
2023-05-22T10:54:48.185Z,26.54
2023-05-22T10:55:48.148Z,26.66
2023-05-22T10:56:48.189Z,26.80
2023-05-22T10:57:48.106Z,26.87
2023-05-22T10:58:48.144Z,26.85
2023-05-22T10:59:48.116Z,26.85
2023-05-22T11:00:48.097Z,26.85
2023-05-22T11:01:48.086Z,26.85
2023-05-22T11:02:48.130Z,26.91
2023-05-22T11:03:48.124Z,26.88
2023-05-22T11:04:48.099Z,26.87
2023-05-22T11:05:47.994Z,26.88
2023-05-22T11:06:48.007Z,26.94
2023-05-22T11:07:47.983Z,26.97
2023-05-22T11:08:47.973Z,27.02
2023-05-22T11:09:47.947Z,27.06
2023-05-22T11:10:47.964Z,27.12
2023-05-22T11:11:47.932Z,27.07
2023-05-22T11:12:47.949Z,27.03
2023-05-22T11:13:47.973Z,27.02
2023-05-22T11:14:47.921Z,27.06
2023-05-22T11:15:47.885Z,27.03
2023-05-22T11:16:48.020Z,27.00
2023-05-22T11:17:47.883Z,27.02
2023-05-22T11:18:47.879Z,27.02
2023-05-22T11:19:47.895Z,27.03
2023-05-22T11:20:47.850Z,27.04
2023-05-22T11:21:47.823Z,27.04
2023-05-22T11:22:47.807Z,26.99
2023-05-22T11:23:47.771Z,26.92
2023-05-22T11:24:47.818Z,26.89
2023-05-22T11:25:47.736Z,26.80
2023-05-22T11:26:47.777Z,26.82
2023-05-22T11:27:47.741Z,26.84
2023-05-22T11:28:47.768Z,26.84
2023-05-22T11:29:47.748Z,26.91
2023-05-22T11:30:47.772Z,27.00
2023-05-22T11:31:47.822Z,27.09
2023-05-22T11:32:47.714Z,27.24
2023-05-22T11:33:47.646Z,27.36
2023-05-22T11:34:47.813Z,27.44
2023-05-22T11:35:47.649Z,27.51
2023-05-22T11:36:47.656Z,27.60
2023-05-22T11:37:47.604Z,27.69
2023-05-22T11:38:47.616Z,27.69
2023-05-22T11:39:47.574Z,27.60
2023-05-22T11:40:47.668Z,27.59
2023-05-22T11:41:47.559Z,27.62
2023-05-22T11:42:47.560Z,27.66
2023-05-22T11:43:47.536Z,27.69
2023-05-22T11:44:47.521Z,27.63
2023-05-22T11:45:48.203Z,27.54
2023-05-22T11:46:47.550Z,27.47
2023-05-22T11:47:47.501Z,27.49
2023-05-22T11:48:47.525Z,27.55
2023-05-22T11:49:47.604Z,27.60
2023-05-22T11:50:47.653Z,27.59
2023-05-22T11:51:47.648Z,27.65
2023-05-22T11:52:47.448Z,27.70
2023-05-22T11:53:47.395Z,27.78
2023-05-22T11:54:47.396Z,27.87
2023-05-22T11:55:47.365Z,27.88
2023-05-22T11:56:47.368Z,27.88
2023-05-22T11:57:47.641Z,27.81
2023-05-22T11:58:47.331Z,27.78
2023-05-22T11:59:47.306Z,27.70
2023-05-22T12:00:47.357Z,27.66
2023-05-22T12:01:47.287Z,27.72
2023-05-22T12:02:47.471Z,27.78
2023-05-22T12:03:47.364Z,27.85
2023-05-22T12:04:47.261Z,27.90
2023-05-22T12:05:47.244Z,27.99
2023-05-22T12:06:47.268Z,28.04
2023-05-22T12:07:47.249Z,27.96
2023-05-22T12:08:47.237Z,27.94
2023-05-22T12:09:47.162Z,27.90
2023-05-22T12:10:47.191Z,27.93
2023-05-22T12:11:47.183Z,27.93
2023-05-22T12:12:47.202Z,27.97
2023-05-22T12:13:47.203Z,27.97
2023-05-22T12:14:47.130Z,27.96
2023-05-22T12:15:47.146Z,27.94
2023-05-22T12:16:47.181Z,28.00
2023-05-22T12:17:47.183Z,28.03
2023-05-22T12:18:47.117Z,27.99
2023-05-22T12:19:47.063Z,27.92
2023-05-22T12:20:47.058Z,27.90
2023-05-22T12:21:47.022Z,27.85
2023-05-22T12:22:47.063Z,27.85
2023-05-22T12:23:47.081Z,27.92
2023-05-22T12:24:47.019Z,28.00
2023-05-22T12:25:46.966Z,28.04
2023-05-22T12:26:46.982Z,28.04
2023-05-22T12:27:46.956Z,28.06
2023-05-22T12:28:46.950Z,28.11
2023-05-22T12:29:46.946Z,28.12
2023-05-22T12:30:46.936Z,28.17
2023-05-22T12:31:46.936Z,28.19
2023-05-22T12:32:46.995Z,28.24
2023-05-22T12:33:46.885Z,28.25
2023-05-22T12:34:46.997Z,28.29
2023-05-22T12:35:46.835Z,28.30
2023-05-22T12:36:46.879Z,28.31
2023-05-22T12:37:46.880Z,28.33
2023-05-22T12:38:46.866Z,28.39
2023-05-22T12:39:46.821Z,28.49
2023-05-22T12:40:46.799Z,28.58
2023-05-22T12:41:47.009Z,28.64
2023-05-22T12:42:47.210Z,28.70
2023-05-22T12:43:46.739Z,28.74
2023-05-22T12:44:46.757Z,28.80
2023-05-22T12:45:46.708Z,28.86
2023-05-22T12:46:46.868Z,28.85
2023-05-22T12:47:46.794Z,28.77
2023-05-22T12:48:47.750Z,28.71
2023-05-22T12:49:46.664Z,28.73
2023-05-22T12:50:46.706Z,28.76
2023-05-22T12:51:46.709Z,28.74
2023-05-22T12:52:46.653Z,28.71